CheckWX is a tool to help pilots better visualize weather data.  It is not intended as a substitute for an official pre-flight weather briefing.

16:50:48 UTC

KBBG TAF
Branson Airport
Branson, Missouri, USA
KBBG 061720Z 0618/0718 18010G18KT P6SM BKN030 FM070000 17008KT P6SM BKN035 FM071000 19008KT P6SM BKN025

Apr-6@
18:00 UTC

Apr-6 @ 18:00 UTC

Apr-7@
00:00 UTC

Apr-7 @ 00:00 UTC

TAF KBBG 061720Z 0618/0718 18010G18KT P6SM BKN030

Expired

Wind
  • 180° at 10 KTS
  • {Gusting to 18 KTS
Cloud Levels
  • Broken at 3,000' AGL

Apr-7@
00:00 UTC

Apr-7 @ 00:00 UTC

Apr-7@
10:00 UTC

Apr-7 @ 10:00 UTC

FM070000 17008KT P6SM BKN035

Expired

Wind
  • 170° at 8 KTS
Cloud Levels
  • Broken at 3,500' AGL

Apr-7@
10:00 UTC

Apr-7 @ 10:00 UTC

Apr-7@
18:00 UTC

Apr-7 @ 18:00 UTC

FM071000 19008KT P6SM BKN025

From

From Standard forecast or significant change

Wind
  • 190° at 8 KTS
Cloud Levels
  • Broken at 2,500' AGL